Latest Weather Observations for Urandangi

IDQ60801

Issued at 9:32 pm EST Friday 1 July 2016 (issued every 30 minutes, with the page automatically refreshed every 10 minutes)

About weather observations | Map of weather stations | Latest weather observations for QLD | Other Formats
Station Details ID: 037058 Name: URANDANGI AERODROME Lat: -21.60 Lon: 138.37 Height: 178.6 m
Data from the previous 72 hours. | See also: Recent months at Urandangi
Date/Time
EST
Temp
°C
App
Temp
°C
Dew
Point
°C
Rel
Hum
%
Delta-T
°C
Wind Press
QNH
hPa
Press
MSL
hPa
Rain since
9am
mm
Dir  Spd
km/h
Gust
km/h
Spd
kts
Gust
kts
01/09:30pm 13.6 10.6 6.0 60 3.6 SSE 11 13 6 7 1024.0 1023.8 0.0
01/09:00pm 13.6 10.5 5.7 59 3.7 SSE 11 13 6 7 1023.9 1023.7 0.0
01/08:30pm 14.4 11.3 5.5 55 4.2 SSE 11 11 6 6 1023.8 1023.6 0.0
01/08:00pm 15.9 12.8 5.5 50 5.0 SSE 11 13 6 7 1023.1 1023.0 0.0
01/07:30pm 17.1 13.9 5.1 45 5.8 SE 11 13 6 7 1022.7 1022.6 0.0
01/07:00pm 18.9 15.7 5.0 40 6.8 SSE 11 13 6 7 1022.5 1022.4 0.0
01/06:30pm 19.9 15.8 4.4 36 7.5 SE 15 17 8 9 1022.2 1022.1 0.0
01/06:00pm 21.0 16.1 4.1 33 8.2 SE 19 26 10 14 1022.0 1021.9 0.0
01/05:30pm 22.0 16.1 4.1 31 8.8 SE 24 32 13 17 1022.0 1021.9 0.0
01/05:00pm 22.5 16.5 3.6 29 9.2 SE 24 33 13 18 1021.9 1021.7 0.0
01/04:30pm 22.7 16.8 3.8 29 9.3 SE 24 35 13 19 1021.8 1021.6 0.0
01/04:00pm 23.1 17.1 3.6 28 9.5 SE 24 35 13 19 1021.7 1021.5 0.0
01/03:30pm 23.3 17.4 3.8 28 9.6 SE 24 37 13 20 1021.7 1021.5 0.0
01/03:00pm 23.2 17.0 4.2 29 9.4 SE 26 35 14 19 1021.7 1021.5 0.0
01/02:30pm 23.2 17.7 4.2 29 9.4 SE 22 33 12 18 1021.8 1021.6 0.0
01/02:00pm 23.9 18.9 4.8 29 9.6 SE 20 32 11 17 1022.3 1022.2 0.0
01/01:30pm 23.1 16.8 3.6 28 9.5 SE 26 37 14 20 1022.8 1022.7 0.0
01/01:00pm 22.9 16.9 3.4 28 9.5 SE 24 35 13 19 1023.3 1023.2 0.0
01/12:30pm 22.5 16.5 3.6 29 9.2 ESE 24 35 13 19 1023.9 1023.7 0.0
01/12:00pm 21.8 15.7 3.0 29 9.0 ESE 24 33 13 18 1024.4 1024.2 0.0
01/11:30am 21.5 15.9 3.7 31 8.6 ESE 22 30 12 16 1024.7 1024.5 0.0
01/11:00am 20.6 14.6 3.3 32 8.2 ESE 24 32 13 17 1024.9 1024.7 0.0
01/10:30am 19.7 14.7 3.4 34 7.8 SE 19 26 10 14 1025.4 1025.2 0.0
01/10:00am 18.8 13.9 4.2 38 7.0 SE 19 26 10 14 1025.5 1025.3 0.0
01/09:30am 17.1 13.1 5.1 45 5.8 SE 15 19 8 10 1025.3 1025.0 0.0
01/09:00am 14.9 11.6 4.6 50 4.8 SE 11 15 6 8 1025.0 1024.7 0.0
01/08:30am 11.7 9.7 6.2 69 2.6 SSE 6 7 3 4 1024.5 1024.2 0.0
01/08:00am 9.0 6.7 5.0 76 1.8 SE 6 7 3 4 1023.9 1023.6 0.0
01/07:30am 8.0 5.7 4.6 79 1.5 ESE 6 7 3 4 1023.2 1023.0 0.0
01/07:00am 8.2 5.7 4.6 78 1.6 SE 7 7 4 4 1022.6 1022.4 0.0
01/06:30am 8.5 6.1 4.5 76 1.8 SE 6 6 3 3 1022.2 1022.0 0.0
01/06:00am 8.7 6.3 4.5 75 1.9 SSE 6 7 3 4 1021.9 1021.7 0.0
01/05:30am 8.8 6.8 4.4 74 2.0 S 4 6 2 3 1021.9 1021.7 0.0
01/05:00am 8.5 5.9 4.3 75 1.9 S 7 9 4 5 1021.5 1021.3 0.0
01/04:30am 8.8 6.4 4.2 73 2.0 SSE 6 7 3 4 1021.0 1020.8 0.0
01/04:00am 8.5 6.2 4.7 77 1.7 SSE 6 7 3 4 1020.7 1020.5 0.0
01/03:30am 9.3 6.9 4.1 70 2.3 SSE 6 6 3 3 1020.4 1020.1 0.0
01/03:00am 9.6 7.1 3.8 67 2.6 SE 6 7 3 4 1020.6 1020.4 0.0
01/02:30am 10.1 7.6 3.6 64 2.9 SE 6 6 3 3 1020.7 1020.5 0.0
01/02:00am 10.6 8.1 3.6 62 3.1 SE 6 6 3 3 1020.8 1020.6 0.0
01/01:30am 10.3 7.6 3.6 63 3.0 SE 7 7 4 4 1020.9 1020.7 0.0
01/01:00am 10.9 8.4 3.9 62 3.1 SE 6 6 3 3 1020.9 1020.7 0.0
01/12:30am 10.9 8.4 3.7 61 3.2 ESE 6 6 3 3 1021.0 1020.8 0.0
01/12:00am 11.6 9.4 3.1 56 3.7 ESE 4 6 2 3 1021.2 1021.0 0.0
 
Date/Time
EST
Temp
°C
App
Temp
°C
Dew
Point
°C
Rel
Hum
%
Delta-T
°C
Wind Press
QNH
hPa
Press
MSL
hPa
Rain since
9am
mm
Dir  Spd
km/h
Gust
km/h
Spd
kts
Gust
kts
30/11:30pm 12.4 9.6 3.1 53 4.1 ESE 7 7 4 4 1021.0 1020.8 0.0
30/11:00pm 12.4 9.6 3.4 54 4.0 SE 7 7 4 4 1021.3 1021.1 0.0
30/10:30pm 13.2 10.4 3.0 50 4.6 ESE 7 7 4 4 1021.3 1021.1 0.0
30/10:00pm 13.8 11.0 2.1 45 5.1 SE 6 6 3 3 1021.3 1021.1 0.0
30/09:30pm 13.4 10.6 2.3 47 4.9 SE 6 7 3 4 1021.2 1021.0 0.0
30/09:00pm 13.5 10.6 2.7 48 4.8 SE 7 9 4 5 1021.0 1020.8 0.0
30/08:30pm 14.1 10.8 2.4 45 5.2 SE 9 9 5 5 1020.9 1020.7 0.0
30/08:00pm 14.1 11.2 2.4 45 5.2 SE 7 9 4 5 1020.5 1020.2 0.0
30/07:30pm 16.3 12.3 0.8 35 6.8 SE 11 13 6 7 1020.0 1019.7 0.0
30/07:00pm 16.7 13.6 1.6 36 6.7 SE 7 9 4 5 1019.6 1019.3 0.0
30/06:30pm 20.0 16.4 0.5 27 8.8 SE 9 9 5 5 1019.2 1018.9 0.0
30/06:00pm 22.0 18.7 -0.1 23 10.0 SSE 7 9 4 5 1019.1 1018.8 0.0
30/05:30pm 24.1 19.7 -2.4 17 11.7 SSE 11 15 6 8 1019.0 1018.7 0.0
30/05:00pm 24.8 19.8 -4.5 14 12.5 SSE 13 19 7 10 1018.8 1018.5 0.0
30/04:30pm 25.2 20.6 -4.2 14 12.6 SSE 11 19 6 10 1018.8 1018.5 0.0
30/04:00pm 25.1 21.6 -2.5 16 12.2 SSW 6 13 3 7 1018.7 1018.4 0.0
30/03:30pm 24.6 20.5 -2.9 16 12.1 SSE 9 17 5 9 1019.1 1018.8 0.0
30/03:00pm 25.1 21.2 -1.6 17 12.0 SSW 9 15 5 8 1019.3 1019.0 0.0
30/02:30pm 24.2 20.7 -1.6 18 11.5 SSW 7 17 4 9 1019.5 1019.2 0.0
30/02:00pm 24.0 20.7 -1.0 19 11.3 SSW 6 13 3 7 1019.8 1019.5 0.0
30/01:30pm 23.9 19.4 -0.4 20 11.1 SW 13 20 7 11 1020.4 1020.1 0.0
30/01:00pm 23.0 19.0 0.2 22 10.4 WSW 11 15 6 8 1020.8 1020.6 0.0
30/12:30pm 22.7 20.0 0.5 23 10.2 WNW 4 7 2 4 1021.1 1020.9 0.0
30/12:00pm 21.4 19.4 2.2 28 9.0 W 2 4 1 2 1021.8 1021.6 0.0
30/11:30am 19.8 17.5 2.6 32 8.1 WNW 4 6 2 3 1022.3 1022.1 0.0
30/11:00am 18.2 16.3 2.9 36 7.1 NW 2 6 1 3 1022.5 1022.3 0.0
30/10:30am 17.1 15.7 3.8 41 6.3 CALM 0 6 0 3 1022.7 1022.5 0.0
30/10:00am 14.6 13.2 3.7 48 5.0 CALM 0 0 0 0 1022.6 1022.4 0.0
30/09:30am 12.4 11.3 4.9 60 3.5 CALM 0 0 0 0 1022.6 1022.4 0.0
30/09:00am 10.1 7.8 4.9 70 2.4 S 6 7 3 4 1022.4 1022.2 0.0
30/08:30am 7.3 5.3 4.6 83 1.2 SSW 4 6 2 3 1021.8 1021.6 0.0
30/08:00am 4.8 2.0 3.3 90 0.6 SSW 7 11 4 6 1021.4 1021.2 0.0
30/07:30am 3.6 0.8 2.1 90 0.6 SW 6 7 3 4 1021.0 1020.8 0.0
30/07:00am 4.0 1.6 2.4 89 0.6 W 4 4 2 2 1020.6 1020.4 0.0
30/06:30am 4.4 2.8 2.6 88 0.7 CALM 0 2 0 1 1020.2 1019.9 0.0
30/06:00am 4.5 2.9 2.7 88 0.7 CALM 0 0 0 0 1020.0 1019.7 0.0
30/05:30am 4.6 3.1 2.8 88 0.7 CALM 0 0 0 0 1019.8 1019.5 0.0
30/05:00am 4.9 3.4 2.9 87 0.8 CALM 0 0 0 0 1019.8 1019.5 0.0
30/04:30am 4.5 1.2 2.5 87 0.8 SSW 9 11 5 6 1020.0 1019.7 0.0
30/04:00am 4.8 2.5 2.8 87 0.8 S 4 7 2 4 1019.7 1019.4 0.0
30/03:30am 4.7 2.3 2.4 85 0.9 SSE 4 6 2 3 1020.0 1019.7 0.0
30/03:00am 6.7 4.0 3.5 80 1.4 ENE 7 7 4 4 1019.8 1019.5 0.0
30/02:30am 6.2 3.6 3.0 80 1.3 ESE 6 7 3 4 1020.3 1020.0 0.0
30/02:00am 6.6 4.4 3.4 80 1.4 SSE 4 6 2 3 1020.8 1020.6 0.0
30/01:30am 6.5 3.7 2.9 78 1.5 S 7 9 4 5 1021.2 1021.0 0.0
30/01:00am 6.8 4.1 2.9 76 1.6 SSE 6 7 3 4 1021.2 1021.0 0.0
30/12:30am 7.7 5.5 3.6 75 1.8 ESE 4 6 2 3 1021.1 1020.9 0.0
30/12:00am 8.7 6.0 3.5 70 2.3 ESE 7 7 4 4 1021.1 1020.9 0.0
 
Date/Time
EST
Temp
°C
App
Temp
°C
Dew
Point
°C
Rel
Hum
%
Delta-T
°C
Wind Press
QNH
hPa
Press
MSL
hPa
Rain since
9am
mm
Dir  Spd
km/h
Gust
km/h
Spd
kts
Gust
kts
29/11:30pm 9.2 6.6 3.4 67 2.5 ESE 6 6 3 3 1021.2 1021.0 0.0
29/11:00pm 9.3 6.6 3.5 67 2.5 SE 7 7 4 4 1021.3 1021.1 0.0
29/10:30pm 10.5 7.9 3.3 61 3.2 SSE 6 6 3 3 1021.6 1021.4 0.0
29/10:00pm 10.8 8.1 3.6 61 3.2 SSE 7 9 4 5 1021.5 1021.3 0.0
29/09:30pm 11.1 8.3 3.4 59 3.4 S 7 9 4 5 1021.5 1021.3 0.0
29/09:00pm 11.7 8.6 3.5 57 3.7 S 9 9 5 5 1021.4 1021.2 0.0
29/08:30pm 12.6 9.9 3.6 54 4.1 SSW 7 9 4 5 1021.4 1021.2 0.0
29/08:00pm 13.2 10.5 3.6 52 4.3 SSW 7 7 4 4 1021.0 1020.8 0.0
29/07:30pm 13.9 11.2 3.7 50 4.7 SSW 7 9 4 5 1020.6 1020.4 0.0
29/07:00pm 14.8 11.3 3.6 47 5.1 SSW 11 11 6 6 1020.4 1020.1 0.0
29/06:30pm 16.5 12.9 2.9 40 6.2 S 11 11 6 6 1020.2 1019.9 0.0
29/06:00pm 19.8 16.9 2.6 32 8.0 S 7 11 4 6 1020.0 1019.7 0.0
29/05:30pm 21.6 17.9 2.3 28 9.1 SSE 11 15 6 8 1019.9 1019.6 0.0
29/05:00pm 22.3 17.8 1.9 26 9.6 S 15 19 8 10 1019.7 1019.4 0.0
29/04:30pm 22.5 18.4 2.1 26 9.7 S 13 19 7 10 1019.6 1019.3 0.0
29/04:00pm 22.4 18.3 2.0 26 9.6 SSW 13 19 7 10 1019.4 1019.1 0.0
29/03:30pm 22.3 18.1 1.9 26 9.6 S 13 20 7 11 1019.4 1019.1 0.0
29/03:00pm 22.2 18.5 2.3 27 9.4 S 11 22 6 12 1019.6 1019.3 0.0
29/02:30pm 21.4 17.6 1.7 27 9.2 SSW 11 19 6 10 1020.1 1019.8 0.0
29/02:00pm 21.5 18.5 2.2 28 9.1 S 7 15 4 8 1020.5 1020.2 0.0
29/01:30pm 20.5 17.5 1.9 29 8.6 SE 7 15 4 8 1020.7 1020.5 0.0
29/01:00pm 19.6 16.5 1.6 30 8.2 SE 7 11 4 6 1021.2 1021.0 0.0
29/12:30pm 18.5 15.7 1.9 33 7.6 E 6 9 3 5 1021.8 1021.6 0.0
29/12:00pm 18.2 15.3 2.5 35 7.2 E 7 11 4 6 1022.4 1022.2 0.0
29/11:30am 16.5 13.2 2.2 38 6.5 E 9 15 5 8 1022.9 1022.7 0.0
29/11:00am 15.9 12.3 2.7 41 6.0 E 11 19 6 10 1023.4 1023.2 0.0
29/10:30am 14.4 10.8 2.9 46 5.2 E 11 15 6 8 1023.8 1023.5 0.0
29/10:00am 12.9 10.2 3.6 53 4.2 ESE 7 13 4 7 1024.0 1023.7 0.0
29/09:30am 11.3 8.8 4.5 63 3.1 SSE 7 9 4 5 1024.1 1023.8 0.0
29/09:00am 8.3 6.0 4.7 78 1.6 SSE 6 7 3 4 1024.1 1023.8 0.0
29/08:30am 6.0 4.0 4.3 89 0.7 SSW 4 7 2 4 1023.9 1023.6 0.0
29/08:00am 4.1 2.6 3.1 93 0.4 CALM 0 0 0 0 1023.5 1023.3 0.0
29/07:30am 2.9 0.8 1.9 93 0.4 SSE 2 6 1 3 1023.3 1023.1 0.0
29/07:00am 2.7 -0.4 1.4 91 0.5 SSE 7 7 4 4 1023.2 1023.0 0.0
29/06:30am 3.5 0.2 2.2 91 0.5 S 9 11 5 6 1023.0 1022.8 0.0
29/06:00am 3.8 1.0 2.2 89 0.6 SSE 6 6 3 3 1022.7 1022.5 0.0
29/05:30am 4.3 2.0 2.7 89 0.7 SE 4 4 2 2 1022.9 1022.7 0.0
29/05:00am 4.6 1.9 2.8 88 0.7 SE 6 7 3 4 1023.0 1022.8 0.0
29/04:30am 4.8 2.1 2.7 86 0.9 SE 6 7 3 4 1022.9 1022.7 0.0
29/04:00am 6.2 2.8 3.9 85 1.0 SE 11 15 6 8 1023.0 1022.8 0.0
29/03:30am 5.8 2.0 3.8 87 0.9 SSE 13 15 7 8 1023.1 1022.9 0.0
29/03:00am 5.2 1.7 3.4 88 0.8 SSE 11 13 6 7 1023.4 1023.2 0.0
29/02:30am 4.7 1.4 2.6 86 0.9 SSE 9 11 5 6 1023.9 1023.6 0.0
29/02:00am 4.8 1.8 2.0 82 1.1 SSE 7 7 4 4 1024.2 1023.9 0.0
29/01:30am 6.0 3.3 2.6 79 1.4 SSE 6 7 3 4 1024.4 1024.1 0.0
29/01:00am 6.3 3.6 2.8 78 1.5 SSE 6 6 3 3 1024.4 1024.1 0.0
29/12:30am 6.1 3.4 2.7 79 1.4 SSE 6 6 3 3 1024.4 1024.1 0.0
29/12:00am 6.1 3.2 2.4 77 1.5 SSE 7 7 4 4 1024.5 1024.2 0.0
 
Date/Time
EST
Temp
°C
App
Temp
°C
Dew
Point
°C
Rel
Hum
%
Delta-T
°C
Wind Press
QNH
hPa
Press
MSL
hPa
Rain since
9am
mm
Dir  Spd
km/h
Gust
km/h
Spd
kts
Gust
kts
28/11:30pm 6.9 4.0 2.6 74 1.8 SE 7 9 4 5 1024.6 1024.3 0.0
28/11:00pm 7.6 4.9 2.9 72 2.0 ESE 6 6 3 3 1024.8 1024.5 0.0
28/10:30pm 8.1 5.2 2.8 69 2.3 SE 7 7 4 4 1024.7 1024.4 0.0
28/10:00pm 8.4 5.2 2.8 68 2.4 SE 9 11 5 6 1024.7 1024.4 0.0

Other Formats:

Comma delimited format used in spreadsheet applications
http://www.bom.gov.au/fwo/IDQ60801/IDQ60801.94344.axf

JavaScript Object Notation format (JSON) in row-major order
http://www.bom.gov.au/fwo/IDQ60801/IDQ60801.94344.json